sensor_id;sensor_type;location;lat;lon;timestamp;pressure;altitude;pressure_sealevel;temperature;humidity
40612;BME280;26317;44.894;20.286;2023-03-15T00:02:39;99338.47;;;12.50;49.47
40612;BME280;26317;44.894;20.286;2023-03-15T00:05:23;99315.19;;;12.37;49.72
40612;BME280;26317;44.894;20.286;2023-03-15T00:08:06;99327.38;;;12.43;50.33
40612;BME280;26317;44.894;20.286;2023-03-15T00:10:51;99325.59;;;12.30;51.21
40612;BME280;26317;44.894;20.286;2023-03-15T00:13:30;99326.69;;;12.29;51.79
40612;BME280;26317;44.894;20.286;2023-03-15T00:16:16;99326.19;;;12.18;52.98
40612;BME280;26317;44.894;20.286;2023-03-15T00:18:50;99315.53;;;12.05;54.36
40612;BME280;26317;44.894;20.286;2023-03-15T00:21:36;99312.66;;;11.92;55.46
40612;BME280;26317;44.894;20.286;2023-03-15T00:24:13;99304.66;;;11.79;56.33
40612;BME280;26317;44.894;20.286;2023-03-15T00:26:57;99312.84;;;11.74;56.29
40612;BME280;26317;44.894;20.286;2023-03-15T00:29:38;99317.56;;;11.68;55.98
40612;BME280;26317;44.894;20.286;2023-03-15T00:32:17;99311.81;;;11.61;56.03
40612;BME280;26317;44.894;20.286;2023-03-15T00:34:56;99318.03;;;11.48;55.20
40612;BME280;26317;44.894;20.286;2023-03-15T00:37:30;99316.53;;;11.33;55.40
40612;BME280;26317;44.894;20.286;2023-03-15T00:40:13;99302.34;;;11.19;55.75
40612;BME280;26317;44.894;20.286;2023-03-15T00:42:58;99313.88;;;11.20;55.57
40612;BME280;26317;44.894;20.286;2023-03-15T00:45:31;99309.63;;;11.19;55.60
40612;BME280;26317;44.894;20.286;2023-03-15T00:51:09;99301.63;;;11.05;56.20
40612;BME280;26317;44.894;20.286;2023-03-15T00:54:01;99284.50;;;10.92;56.85
40612;BME280;26317;44.894;20.286;2023-03-15T00:56:35;99279.59;;;10.94;57.06
40612;BME280;26317;44.894;20.286;2023-03-15T00:59:20;99269.91;;;10.85;58.07
40612;BME280;26317;44.894;20.286;2023-03-15T01:02:01;99274.66;;;10.88;57.89
40612;BME280;26317;44.894;20.286;2023-03-15T01:04:44;99253.25;;;10.74;57.60
40612;BME280;26317;44.894;20.286;2023-03-15T01:07:17;99271.88;;;10.93;57.15
40612;BME280;26317;44.894;20.286;2023-03-15T01:10:07;99267.41;;;10.88;56.93
40612;BME280;26317;44.894;20.286;2023-03-15T01:12:49;99258.97;;;10.81;56.82
40612;BME280;26317;44.894;20.286;2023-03-15T01:15:41;99268.94;;;10.81;56.15
40612;BME280;26317;44.894;20.286;2023-03-15T01:18:29;99278.44;;;10.87;56.65
40612;BME280;26317;44.894;20.286;2023-03-15T01:21:14;99273.06;;;10.87;56.35
40612;BME280;26317;44.894;20.286;2023-03-15T01:23:58;99285.56;;;10.91;56.20
40612;BME280;26317;44.894;20.286;2023-03-15T01:26:36;99281.44;;;10.85;56.19
40612;BME280;26317;44.894;20.286;2023-03-15T01:32:12;99280.78;;;10.66;57.06
40612;BME280;26317;44.894;20.286;2023-03-15T01:34:55;99267.09;;;10.54;57.07
40612;BME280;26317;44.894;20.286;2023-03-15T01:37:47;99263.16;;;10.38;57.52
40612;BME280;26317;44.894;20.286;2023-03-15T01:40:26;99246.63;;;10.22;58.23
40612;BME280;26317;44.894;20.286;2023-03-15T01:43:17;99271.59;;;10.45;58.33
40612;BME280;26317;44.894;20.286;2023-03-15T01:49:11;99269.88;;;10.49;58.20
40612;BME280;26317;44.894;20.286;2023-03-15T01:51:57;99274.97;;;10.37;59.50
40612;BME280;26317;44.894;20.286;2023-03-15T01:55:17;99270.41;;;10.24;59.51
40612;BME280;26317;44.894;20.286;2023-03-15T01:58:11;99267.13;;;10.13;60.10
40612;BME280;26317;44.894;20.286;2023-03-15T02:00:50;99263.13;;;10.10;60.18
40612;BME280;26317;44.894;20.286;2023-03-15T02:03:30;99272.78;;;10.11;60.26
40612;BME280;26317;44.894;20.286;2023-03-15T02:06:31;99270.41;;;10.24;60.19
40612;BME280;26317;44.894;20.286;2023-03-15T02:09:16;99259.50;;;10.34;59.72
40612;BME280;26317;44.894;20.286;2023-03-15T02:11:58;99276.84;;;10.50;59.27
40612;BME280;26317;44.894;20.286;2023-03-15T02:14:38;99260.25;;;10.48;58.71
40612;BME280;26317;44.894;20.286;2023-03-15T02:17:25;99277.38;;;10.74;58.23
40612;BME280;26317;44.894;20.286;2023-03-15T02:20:11;99277.75;;;10.81;57.80
40612;BME280;26317;44.894;20.286;2023-03-15T02:22:56;99273.41;;;10.85;57.40
40612;BME280;26317;44.894;20.286;2023-03-15T02:25:53;99279.00;;;10.97;56.65
40612;BME280;26317;44.894;20.286;2023-03-15T02:28:31;99290.00;;;11.10;56.21
40612;BME280;26317;44.894;20.286;2023-03-15T02:31:06;99284.22;;;11.02;56.14
40612;BME280;26317;44.894;20.286;2023-03-15T02:33:46;99288.75;;;11.16;55.79
40612;BME280;26317;44.894;20.286;2023-03-15T02:36:26;99281.44;;;11.07;55.46
40612;BME280;26317;44.894;20.286;2023-03-15T02:39:11;99289.81;;;11.06;55.88
40612;BME280;26317;44.894;20.286;2023-03-15T02:41:54;99284.84;;;10.99;56.17
40612;BME280;26317;44.894;20.286;2023-03-15T02:44:37;99291.31;;;10.98;55.99
40612;BME280;26317;44.894;20.286;2023-03-15T02:47:16;99287.34;;;10.96;56.31
40612;BME280;26317;44.894;20.286;2023-03-15T02:49:59;99284.16;;;10.94;56.85
40612;BME280;26317;44.894;20.286;2023-03-15T02:52:45;99275.34;;;10.93;56.70
40612;BME280;26317;44.894;20.286;2023-03-15T02:55:34;99268.63;;;10.82;56.67
40612;BME280;26317;44.894;20.286;2023-03-15T02:58:16;99272.38;;;10.81;57.02
40612;BME280;26317;44.894;20.286;2023-03-15T03:01:03;99261.91;;;10.71;57.60
40612;BME280;26317;44.894;20.286;2023-03-15T03:03:41;99267.28;;;10.57;58.16
40612;BME280;26317;44.894;20.286;2023-03-15T03:06:26;99272.97;;;10.56;58.15
40612;BME280;26317;44.894;20.286;2023-03-15T03:09:07;99258.19;;;10.45;58.77
40612;BME280;26317;44.894;20.286;2023-03-15T03:12:02;99256.09;;;10.42;59.12
40612;BME280;26317;44.894;20.286;2023-03-15T03:14:55;99259.69;;;10.24;59.73
40612;BME280;26317;44.894;20.286;2023-03-15T03:17:36;99259.59;;;10.01;59.97
40612;BME280;26317;44.894;20.286;2023-03-15T03:20:20;99260.22;;;9.52;61.22
40612;BME280;26317;44.894;20.286;2023-03-15T03:23:04;99269.81;;;9.40;61.94
40612;BME280;26317;44.894;20.286;2023-03-15T03:25:40;99264.25;;;9.22;62.23
40612;BME280;26317;44.894;20.286;2023-03-15T03:28:23;99250.88;;;9.22;62.48
40612;BME280;26317;44.894;20.286;2023-03-15T03:31:02;99256.97;;;9.23;62.83
40612;BME280;26317;44.894;20.286;2023-03-15T03:33:44;99267.00;;;9.17;62.81
40612;BME280;26317;44.894;20.286;2023-03-15T03:36:25;99265.00;;;9.23;63.11
40612;BME280;26317;44.894;20.286;2023-03-15T03:39:14;99244.59;;;9.13;62.98
40612;BME280;26317;44.894;20.286;2023-03-15T03:41:56;99271.00;;;9.34;62.92
40612;BME280;26317;44.894;20.286;2023-03-15T03:44:35;99279.50;;;9.36;62.91
40612;BME280;26317;44.894;20.286;2023-03-15T03:47:20;99281.38;;;9.35;62.94
40612;BME280;26317;44.894;20.286;2023-03-15T03:49:55;99284.88;;;9.36;63.21
40612;BME280;26317;44.894;20.286;2023-03-15T03:52:34;99277.56;;;9.41;63.04
40612;BME280;26317;44.894;20.286;2023-03-15T03:55:25;99281.50;;;9.44;62.86
40612;BME280;26317;44.894;20.286;2023-03-15T03:58:01;99268.72;;;9.41;63.04
40612;BME280;26317;44.894;20.286;2023-03-15T04:00:55;99278.16;;;9.38;63.10
40612;BME280;26317;44.894;20.286;2023-03-15T04:03:40;99280.03;;;9.38;63.31
40612;BME280;26317;44.894;20.286;2023-03-15T04:09:46;99261.88;;;9.35;64.35
40612;BME280;26317;44.894;20.286;2023-03-15T04:12:24;99244.00;;;9.16;64.87
40612;BME280;26317;44.894;20.286;2023-03-15T04:15:01;99255.09;;;9.23;64.91
40612;BME280;26317;44.894;20.286;2023-03-15T04:17:46;99250.00;;;9.08;66.06
40612;BME280;26317;44.894;20.286;2023-03-15T04:20:40;99249.28;;;9.03;66.39
40612;BME280;26317;44.894;20.286;2023-03-15T04:23:20;99255.06;;;9.10;66.47
40612;BME280;26317;44.894;20.286;2023-03-15T04:26:28;99250.47;;;8.97;66.71
40612;BME280;26317;44.894;20.286;2023-03-15T04:29:20;99270.13;;;8.87;67.53
40612;BME280;26317;44.894;20.286;2023-03-15T04:32:26;99237.91;;;8.78;67.23
40612;BME280;26317;44.894;20.286;2023-03-15T04:35:18;99253.06;;;8.83;67.17
40612;BME280;26317;44.894;20.286;2023-03-15T04:38:13;99233.66;;;8.59;68.28
40612;BME280;26317;44.894;20.286;2023-03-15T04:41:35;99215.09;;;8.49;68.02
40612;BME280;26317;44.894;20.286;2023-03-15T04:44:37;99243.78;;;8.43;68.26
40612;BME280;26317;44.894;20.286;2023-03-15T04:47:55;99253.88;;;8.46;68.37
40612;BME280;26317;44.894;20.286;2023-03-15T04:50:58;99265.25;;;8.33;68.71
40612;BME280;26317;44.894;20.286;2023-03-15T04:53:41;99265.41;;;8.42;68.29
40612;BME280;26317;44.894;20.286;2023-03-15T04:56:53;99265.50;;;8.55;67.75
40612;BME280;26317;44.894;20.286;2023-03-15T04:59:56;99267.56;;;8.40;67.43
40612;BME280;26317;44.894;20.286;2023-03-15T05:03:01;99262.75;;;8.42;66.69
40612;BME280;26317;44.894;20.286;2023-03-15T05:06:05;99265.84;;;8.49;65.93
40612;BME280;26317;44.894;20.286;2023-03-15T05:09:04;99278.00;;;8.60;64.96
40612;BME280;26317;44.894;20.286;2023-03-15T05:12:21;99275.78;;;8.67;64.55
40612;BME280;26317;44.894;20.286;2023-03-15T05:15:41;99274.47;;;8.83;62.95
40612;BME280;26317;44.894;20.286;2023-03-15T05:18:45;99254.94;;;8.83;62.17
40612;BME280;26317;44.894;20.286;2023-03-15T05:21:52;99268.38;;;8.96;61.54
40612;BME280;26317;44.894;20.286;2023-03-15T05:24:59;99258.97;;;8.99;61.55
40612;BME280;26317;44.894;20.286;2023-03-15T05:27:59;99277.03;;;9.07;60.85
40612;BME280;26317;44.894;20.286;2023-03-15T05:30:46;99265.00;;;8.72;60.45
40612;BME280;26317;44.894;20.286;2023-03-15T05:34:00;99260.69;;;8.76;61.05
40612;BME280;26317;44.894;20.286;2023-03-15T05:37:09;99281.69;;;8.83;61.49
40612;BME280;26317;44.894;20.286;2023-03-15T05:40:14;99291.59;;;8.82;61.13
40612;BME280;26317;44.894;20.286;2023-03-15T05:43:27;99283.50;;;8.87;61.73
40612;BME280;26317;44.894;20.286;2023-03-15T05:46:20;99288.41;;;8.80;62.07
40612;BME280;26317;44.894;20.286;2023-03-15T05:49:19;99291.44;;;8.92;62.19
40612;BME280;26317;44.894;20.286;2023-03-15T05:52:29;99292.25;;;8.93;61.75
40612;BME280;26317;44.894;20.286;2023-03-15T05:55:25;99311.44;;;8.95;61.10
40612;BME280;26317;44.894;20.286;2023-03-15T05:58:26;99298.81;;;9.00;60.83
40612;BME280;26317;44.894;20.286;2023-03-15T06:01:28;99314.34;;;9.17;60.49
40612;BME280;26317;44.894;20.286;2023-03-15T06:04:27;99315.34;;;9.21;59.94
40612;BME280;26317;44.894;20.286;2023-03-15T06:07:09;99315.16;;;9.31;59.42
40612;BME280;26317;44.894;20.286;2023-03-15T06:09:47;99324.94;;;9.41;59.42
40612;BME280;26317;44.894;20.286;2023-03-15T06:12:28;99314.63;;;9.48;59.62
40612;BME280;26317;44.894;20.286;2023-03-15T06:15:09;99321.78;;;9.52;60.85
40612;BME280;26317;44.894;20.286;2023-03-15T06:17:52;99330.03;;;9.56;62.60
40612;BME280;26317;44.894;20.286;2023-03-15T06:20:28;99330.03;;;9.56;64.49
40612;BME280;26317;44.894;20.286;2023-03-15T06:23:13;99328.53;;;9.50;65.71
40612;BME280;26317;44.894;20.286;2023-03-15T06:25:54;99346.75;;;9.48;67.19
40612;BME280;26317;44.894;20.286;2023-03-15T06:28:35;99358.38;;;9.57;67.83
40612;BME280;26317;44.894;20.286;2023-03-15T06:31:14;99373.88;;;9.60;68.61
40612;BME280;26317;44.894;20.286;2023-03-15T06:33:58;99383.91;;;9.68;69.47
40612;BME280;26317;44.894;20.286;2023-03-15T06:36:35;99398.50;;;9.76;69.66
40612;BME280;26317;44.894;20.286;2023-03-15T06:39:16;99399.31;;;9.76;70.56
40612;BME280;26317;44.894;20.286;2023-03-15T06:41:53;99412.38;;;9.96;71.03
40612;BME280;26317;44.894;20.286;2023-03-15T06:44:42;99416.75;;;10.06;71.42
40612;BME280;26317;44.894;20.286;2023-03-15T06:47:25;99426.56;;;10.10;72.04
40612;BME280;26317;44.894;20.286;2023-03-15T06:50:09;99433.59;;;10.06;72.88
40612;BME280;26317;44.894;20.286;2023-03-15T06:52:45;99431.72;;;10.07;73.05
40612;BME280;26317;44.894;20.286;2023-03-15T06:55:23;99432.13;;;10.00;72.99
40612;BME280;26317;44.894;20.286;2023-03-15T06:58:04;99429.59;;;9.90;74.30
40612;BME280;26317;44.894;20.286;2023-03-15T07:00:43;99415.63;;;9.93;75.31
40612;BME280;26317;44.894;20.286;2023-03-15T07:03:24;99417.91;;;10.00;75.61
40612;BME280;26317;44.894;20.286;2023-03-15T07:06:00;99402.72;;;9.95;76.72
40612;BME280;26317;44.894;20.286;2023-03-15T07:08:51;99392.84;;;9.77;80.45
40612;BME280;26317;44.894;20.286;2023-03-15T07:11:30;99430.09;;;9.92;83.28
40612;BME280;26317;44.894;20.286;2023-03-15T07:14:11;99429.97;;;9.84;85.49
40612;BME280;26317;44.894;20.286;2023-03-15T07:16:51;99437.94;;;9.89;86.90
40612;BME280;26317;44.894;20.286;2023-03-15T07:19:32;99409.03;;;9.72;87.60
40612;BME280;26317;44.894;20.286;2023-03-15T07:22:26;99446.25;;;9.87;89.26
40612;BME280;26317;44.894;20.286;2023-03-15T07:25:28;99452.63;;;9.91;89.63
40612;BME280;26317;44.894;20.286;2023-03-15T07:28:21;99473.03;;;9.87;90.68
40612;BME280;26317;44.894;20.286;2023-03-15T07:31:04;99473.03;;;9.87;90.97
40612;BME280;26317;44.894;20.286;2023-03-15T07:33:46;99482.94;;;9.87;91.89
40612;BME280;26317;44.894;20.286;2023-03-15T07:36:31;99491.84;;;10.01;91.56
40612;BME280;26317;44.894;20.286;2023-03-15T07:39:13;99487.03;;;9.84;92.34
40612;BME280;26317;44.894;20.286;2023-03-15T07:41:58;99491.72;;;9.92;92.15
40612;BME280;26317;44.894;20.286;2023-03-15T07:44:47;99488.31;;;9.87;92.43
40612;BME280;26317;44.894;20.286;2023-03-15T07:47:30;99497.47;;;9.99;92.13
40612;BME280;26317;44.894;20.286;2023-03-15T07:50:12;99489.38;;;10.04;90.48
40612;BME280;26317;44.894;20.286;2023-03-15T07:52:53;99488.28;;;10.05;89.76
40612;BME280;26317;44.894;20.286;2023-03-15T07:55:38;99506.31;;;10.19;88.79
40612;BME280;26317;44.894;20.286;2023-03-15T07:58:11;99503.97;;;10.31;87.56
40612;BME280;26317;44.894;20.286;2023-03-15T08:01:01;99499.50;;;10.40;86.64
40612;BME280;26317;44.894;20.286;2023-03-15T08:03:42;99500.63;;;10.39;85.68
40612;BME280;26317;44.894;20.286;2023-03-15T08:06:18;99480.63;;;10.31;84.98
40612;BME280;26317;44.894;20.286;2023-03-15T08:09:12;99507.41;;;10.50;84.27
40612;BME280;26317;44.894;20.286;2023-03-15T08:11:50;99506.41;;;10.46;84.15
40612;BME280;26317;44.894;20.286;2023-03-15T08:14:28;99480.88;;;10.35;83.78
40612;BME280;26317;44.894;20.286;2023-03-15T08:17:07;99504.03;;;10.58;82.71
40612;BME280;26317;44.894;20.286;2023-03-15T08:19:55;99498.06;;;10.47;82.07
40612;BME280;26317;44.894;20.286;2023-03-15T08:22:42;99475.19;;;10.23;82.93
40612;BME280;26317;44.894;20.286;2023-03-15T08:25:30;99497.03;;;10.30;81.97
40612;BME280;26317;44.894;20.286;2023-03-15T08:28:12;99514.06;;;10.20;81.38
40612;BME280;26317;44.894;20.286;2023-03-15T08:30:49;99516.53;;;10.17;80.61
40612;BME280;26317;44.894;20.286;2023-03-15T08:33:23;99512.47;;;10.00;80.78
40612;BME280;26317;44.894;20.286;2023-03-15T08:36:00;99514.69;;;10.12;79.97
40612;BME280;26317;44.894;20.286;2023-03-15T08:38:35;99507.41;;;9.99;80.61
40612;BME280;26317;44.894;20.286;2023-03-15T08:41:12;99536.28;;;10.21;78.80
40612;BME280;26317;44.894;20.286;2023-03-15T08:43:46;99530.94;;;10.21;78.53
40612;BME280;26317;44.894;20.286;2023-03-15T08:46:28;99535.91;;;10.27;77.46
40612;BME280;26317;44.894;20.286;2023-03-15T08:49:17;99552.91;;;10.23;77.39
40612;BME280;26317;44.894;20.286;2023-03-15T08:52:00;99553.47;;;10.20;78.01
40612;BME280;26317;44.894;20.286;2023-03-15T08:54:36;99565.69;;;10.26;78.02
40612;BME280;26317;44.894;20.286;2023-03-15T08:57:22;99555.69;;;10.31;77.87
40612;BME280;26317;44.894;20.286;2023-03-15T09:00:10;99562.63;;;10.51;78.01
40612;BME280;26317;44.894;20.286;2023-03-15T09:02:57;99562.00;;;10.54;77.56
40612;BME280;26317;44.894;20.286;2023-03-15T09:05:44;99556.91;;;10.71;75.65
40612;BME280;26317;44.894;20.286;2023-03-15T09:08:23;99558.69;;;10.76;75.62
40612;BME280;26317;44.894;20.286;2023-03-15T09:11:13;99564.75;;;10.81;76.87
40612;BME280;26317;44.894;20.286;2023-03-15T09:13:56;99561.66;;;10.74;76.25
40612;BME280;26317;44.894;20.286;2023-03-15T09:17:00;99579.34;;;10.75;77.09
40612;BME280;26317;44.894;20.286;2023-03-15T09:19:38;99576.59;;;10.80;77.11
40612;BME280;26317;44.894;20.286;2023-03-15T09:22:27;99580.75;;;10.86;76.95
40612;BME280;26317;44.894;20.286;2023-03-15T09:25:14;99578.06;;;10.73;77.61
40612;BME280;26317;44.894;20.286;2023-03-15T09:28:00;99587.41;;;10.75;77.76
40612;BME280;26317;44.894;20.286;2023-03-15T09:30:41;99588.47;;;10.74;77.70
40612;BME280;26317;44.894;20.286;2023-03-15T09:33:13;99587.13;;;10.77;77.45
40612;BME280;26317;44.894;20.286;2023-03-15T09:35:52;99594.13;;;10.59;77.86
40612;BME280;26317;44.894;20.286;2023-03-15T09:38:32;99588.00;;;10.72;77.96
40612;BME280;26317;44.894;20.286;2023-03-15T09:41:34;99594.03;;;10.78;77.56
40612;BME280;26317;44.894;20.286;2023-03-15T09:44:38;99599.63;;;10.81;76.83
40612;BME280;26317;44.894;20.286;2023-03-15T09:47:45;99597.19;;;10.66;78.26
40612;BME280;26317;44.894;20.286;2023-03-15T09:50:34;99599.88;;;10.66;78.25
40612;BME280;26317;44.894;20.286;2023-03-15T09:53:16;99595.03;;;10.68;77.88
40612;BME280;26317;44.894;20.286;2023-03-15T09:55:54;99593.75;;;10.79;77.72
40612;BME280;26317;44.894;20.286;2023-03-15T09:58:31;99595.94;;;10.77;77.36
40612;BME280;26317;44.894;20.286;2023-03-15T10:01:12;99595.25;;;10.72;77.84
40612;BME280;26317;44.894;20.286;2023-03-15T10:03:56;99594.03;;;10.64;78.46
40612;BME280;26317;44.894;20.286;2023-03-15T10:09:22;99614.53;;;10.87;77.23
40612;BME280;26317;44.894;20.286;2023-03-15T10:12:12;99618.63;;;10.98;77.17
40612;BME280;26317;44.894;20.286;2023-03-15T10:15:20;99622.00;;;10.90;76.46
40612;BME280;26317;44.894;20.286;2023-03-15T10:18:29;99617.38;;;10.64;78.26
40612;BME280;26317;44.894;20.286;2023-03-15T10:21:29;99606.19;;;10.43;78.65
40612;BME280;26317;44.894;20.286;2023-03-15T10:24:17;99621.22;;;10.57;78.52
40612;BME280;26317;44.894;20.286;2023-03-15T10:27:17;99615.84;;;10.57;78.07
40612;BME280;26317;44.894;20.286;2023-03-15T10:29:57;99613.22;;;10.71;77.79
40612;BME280;26317;44.894;20.286;2023-03-15T10:32:38;99626.09;;;10.69;77.41
40612;BME280;26317;44.894;20.286;2023-03-15T10:35:20;99614.94;;;10.81;76.75
40612;BME280;26317;44.894;20.286;2023-03-15T10:37:54;99623.06;;;10.76;76.46
40612;BME280;26317;44.894;20.286;2023-03-15T10:40:44;99637.88;;;10.54;77.21
40612;BME280;26317;44.894;20.286;2023-03-15T10:43:26;99629.44;;;10.47;77.38
40612;BME280;26317;44.894;20.286;2023-03-15T10:46:20;99629.56;;;10.56;77.15
40612;BME280;26317;44.894;20.286;2023-03-15T10:49:07;99643.31;;;10.68;76.10
40612;BME280;26317;44.894;20.286;2023-03-15T10:51:45;99647.22;;;10.57;76.56
40612;BME280;26317;44.894;20.286;2023-03-15T10:54:21;99642.19;;;10.37;76.77
40612;BME280;26317;44.894;20.286;2023-03-15T10:57:10;99649.06;;;10.43;76.68
40612;BME280;26317;44.894;20.286;2023-03-15T10:59:59;99638.19;;;10.34;75.99
40612;BME280;26317;44.894;20.286;2023-03-15T11:03:06;99643.38;;;10.44;75.83
40612;BME280;26317;44.894;20.286;2023-03-15T11:05:51;99643.97;;;10.41;75.26
40612;BME280;26317;44.894;20.286;2023-03-15T11:08:43;99636.81;;;10.37;75.69
40612;BME280;26317;44.894;20.286;2023-03-15T11:11:27;99627.47;;;10.34;76.16
40612;BME280;26317;44.894;20.286;2023-03-15T11:14:10;99655.09;;;10.35;76.43
40612;BME280;26317;44.894;20.286;2023-03-15T11:17:01;99662.66;;;10.28;77.50
40612;BME280;26317;44.894;20.286;2023-03-15T11:19:52;99659.66;;;10.34;77.63
40612;BME280;26317;44.894;20.286;2023-03-15T11:22:38;99671.94;;;10.17;77.22
40612;BME280;26317;44.894;20.286;2023-03-15T11:25:17;99666.13;;;10.09;78.02
40612;BME280;26317;44.894;20.286;2023-03-15T11:27:57;99670.88;;;9.94;76.87
40612;BME280;26317;44.894;20.286;2023-03-15T11:30:39;99668.09;;;9.80;78.06
40612;BME280;26317;44.894;20.286;2023-03-15T11:33:19;99668.75;;;9.72;77.75
40612;BME280;26317;44.894;20.286;2023-03-15T11:36:14;99673.28;;;9.72;79.93
40612;BME280;26317;44.894;20.286;2023-03-15T11:38:56;99679.16;;;9.74;79.59
40612;BME280;26317;44.894;20.286;2023-03-15T11:41:39;99656.50;;;9.66;79.64
40612;BME280;26317;44.894;20.286;2023-03-15T11:44:28;99667.63;;;9.73;78.84
40612;BME280;26317;44.894;20.286;2023-03-15T11:47:17;99671.88;;;9.55;80.13
40612;BME280;26317;44.894;20.286;2023-03-15T11:50:04;99679.56;;;9.62;80.67
40612;BME280;26317;44.894;20.286;2023-03-15T11:52:42;99678.09;;;9.51;79.55
40612;BME280;26317;44.894;20.286;2023-03-15T11:55:55;99671.53;;;9.38;80.93
40612;BME280;26317;44.894;20.286;2023-03-15T11:58:42;99674.66;;;9.45;80.15
40612;BME280;26317;44.894;20.286;2023-03-15T12:01:37;99694.06;;;9.32;79.11
40612;BME280;26317;44.894;20.286;2023-03-15T12:04:42;99679.41;;;9.24;80.10
40612;BME280;26317;44.894;20.286;2023-03-15T12:07:39;99687.53;;;9.14;80.42
40612;BME280;26317;44.894;20.286;2023-03-15T12:10:37;99688.72;;;9.03;79.42
40612;BME280;26317;44.894;20.286;2023-03-15T12:13:23;99692.56;;;8.92;80.42
40612;BME280;26317;44.894;20.286;2023-03-15T12:16:12;99683.59;;;8.73;80.14
40612;BME280;26317;44.894;20.286;2023-03-15T12:18:58;99700.94;;;8.81;81.20
40612;BME280;26317;44.894;20.286;2023-03-15T12:21:36;99681.28;;;8.61;81.06
40612;BME280;26317;44.894;20.286;2023-03-15T12:24:21;99681.09;;;8.53;80.86
40612;BME280;26317;44.894;20.286;2023-03-15T12:27:05;99687.50;;;8.52;81.34
40612;BME280;26317;44.894;20.286;2023-03-15T12:29:47;99698.47;;;8.50;80.53
40612;BME280;26317;44.894;20.286;2023-03-15T12:32:50;99703.63;;;8.42;81.63
40612;BME280;26317;44.894;20.286;2023-03-15T12:35:36;99714.38;;;8.26;82.29
40612;BME280;26317;44.894;20.286;2023-03-15T12:38:23;99689.06;;;8.09;81.66
40612;BME280;26317;44.894;20.286;2023-03-15T12:41:40;99717.66;;;8.08;82.71
40612;BME280;26317;44.894;20.286;2023-03-15T12:44:35;99696.53;;;8.07;82.92
40612;BME280;26317;44.894;20.286;2023-03-15T12:47:12;99719.19;;;8.19;81.27
40612;BME280;26317;44.894;20.286;2023-03-15T12:49:55;99722.41;;;8.16;81.01
40612;BME280;26317;44.894;20.286;2023-03-15T12:52:47;99727.03;;;7.96;81.00
40612;BME280;26317;44.894;20.286;2023-03-15T12:55:35;99744.38;;;8.03;82.11
40612;BME280;26317;44.894;20.286;2023-03-15T12:58:12;99737.72;;;7.96;82.17
40612;BME280;26317;44.894;20.286;2023-03-15T13:00:52;99751.09;;;7.91;82.36
40612;BME280;26317;44.894;20.286;2023-03-15T13:03:36;99750.84;;;7.77;83.21
40612;BME280;26317;44.894;20.286;2023-03-15T13:06:23;99743.69;;;7.57;84.95
40612;BME280;26317;44.894;20.286;2023-03-15T13:09:15;99749.84;;;7.63;85.99
40612;BME280;26317;44.894;20.286;2023-03-15T13:11:58;99756.78;;;7.44;87.56
40612;BME280;26317;44.894;20.286;2023-03-15T13:14:43;99762.66;;;7.51;88.59
40612;BME280;26317;44.894;20.286;2023-03-15T13:17:38;99741.34;;;7.30;89.64
40612;BME280;26317;44.894;20.286;2023-03-15T13:20:24;99765.59;;;7.39;90.85
40612;BME280;26317;44.894;20.286;2023-03-15T13:23:15;99753.09;;;7.24;92.90
40612;BME280;26317;44.894;20.286;2023-03-15T13:29:10;99766.94;;;7.11;95.62
40612;BME280;26317;44.894;20.286;2023-03-15T13:32:09;99780.03;;;7.13;96.93
40612;BME280;26317;44.894;20.286;2023-03-15T13:34:48;99774.66;;;6.98;97.69
40612;BME280;26317;44.894;20.286;2023-03-15T13:37:27;99788.78;;;6.93;99.85
40612;BME280;26317;44.894;20.286;2023-03-15T13:40:10;99779.22;;;6.92;100.00
40612;BME280;26317;44.894;20.286;2023-03-15T13:42:51;99796.00;;;6.98;99.83
40612;BME280;26317;44.894;20.286;2023-03-15T13:45:31;99769.88;;;6.89;100.00
40612;BME280;26317;44.894;20.286;2023-03-15T13:48:20;99794.69;;;7.00;100.00
40612;BME280;26317;44.894;20.286;2023-03-15T13:51:05;99786.41;;;6.91;100.00
40612;BME280;26317;44.894;20.286;2023-03-15T13:53:45;99796.53;;;6.94;100.00
40612;BME280;26317;44.894;20.286;2023-03-15T13:56:31;99800.81;;;7.01;100.00
40612;BME280;26317;44.894;20.286;2023-03-15T13:59:17;99778.66;;;6.90;100.00
40612;BME280;26317;44.894;20.286;2023-03-15T14:02:04;99798.13;;;6.96;100.00
40612;BME280;26317;44.894;20.286;2023-03-15T14:04:42;99808.25;;;6.93;100.00
40612;BME280;26317;44.894;20.286;2023-03-15T14:07:34;99811.22;;;6.97;100.00
40612;BME280;26317;44.894;20.286;2023-03-15T14:10:27;99814.41;;;6.99;100.00
40612;BME280;26317;44.894;20.286;2023-03-15T14:13:19;99811.44;;;6.90;100.00
40612;BME280;26317;44.894;20.286;2023-03-15T14:16:01;99823.16;;;6.79;100.00
40612;BME280;26317;44.894;20.286;2023-03-15T14:18:41;99825.56;;;6.81;100.00
40612;BME280;26317;44.894;20.286;2023-03-15T14:21:32;99819.72;;;6.84;100.00
40612;BME280;26317;44.894;20.286;2023-03-15T14:24:11;99821.81;;;6.82;100.00
40612;BME280;26317;44.894;20.286;2023-03-15T14:27:04;99817.31;;;6.87;100.00
40612;BME280;26317;44.894;20.286;2023-03-15T14:29:53;99832.78;;;6.90;100.00
40612;BME280;26317;44.894;20.286;2023-03-15T14:32:36;99824.53;;;6.92;100.00
40612;BME280;26317;44.894;20.286;2023-03-15T14:35:27;99835.69;;;6.89;100.00
40612;BME280;26317;44.894;20.286;2023-03-15T14:38:16;99823.91;;;6.65;100.00
40612;BME280;26317;44.894;20.286;2023-03-15T14:40:53;99840.19;;;6.63;100.00
40612;BME280;26317;44.894;20.286;2023-03-15T14:43:30;99841.19;;;6.52;100.00
40612;BME280;26317;44.894;20.286;2023-03-15T14:46:07;99839.25;;;6.32;100.00
40612;BME280;26317;44.894;20.286;2023-03-15T14:49:05;99835.03;;;6.41;100.00
40612;BME280;26317;44.894;20.286;2023-03-15T14:51:59;99829.56;;;6.11;100.00
40612;BME280;26317;44.894;20.286;2023-03-15T14:54:36;99843.13;;;6.10;100.00
40612;BME280;26317;44.894;20.286;2023-03-15T14:57:22;99849.28;;;6.15;100.00